Terminal Aerodrome Forecast
Issued by NWS Duluth, MN

Home | Current Version | Previous Version | Text Only | Print | Product List | Glossary On
Versions: 1 2 3 4 5 6 7 8 9 10 11 12 13 14 15 16 17 18 19 20
000
FTUS43 KDLH 162300 RRA
TAFDLH
TAF
KDLH 162346Z 1700/1724 06018G27KT 3/4SM -SN BLSN OVC010
      TEMPO 1701/1705 1/4SM SN BLSN OVC008
     FM170800 05017G26KT 1 1/2SM -SN BLSN OVC012
     FM171000 03013G20KT 4SM -SN SCT007 OVC015
     FM171600 36010KT P6SM SCT015 BKN028
     FM172200 31008KT P6SM SCT035=

USA.gov is the U.S. government's official web portal to all federal, state and local government web resources and services.